Fort St John Airport
CYXJ : now visible

Airfield :











YOU CAN JOIN US ON...

 
LOGIN :

Register | Disclaimer

   EN    FR    IT 

 









Legend :    VFR   Marginal VFR   IFR   Intensive IFR   Very Intensive IFR
Visi :
Ceiling :
>= 8 km
>= 3000ft
5 to 8 km
1000 to 3000 ft
1500m to 5 km
500 to 1000 ft
800 to 1500m
200 to 500 ft
< 800m
< 200 ft
Symbols :   Thunderstorms  Fog  Heavy snow  Heavy precipitations  Wind > 20 kt







- Airport Elevation : 2280 ft
- IATA code : YXJ


CYXJ - Fort St John

CURRENT METAR :
  • 211000Z 04009KT 30SM FEW210 06/M03 A2982 RMK CI1 SLP111

EXPIRED METARs :
  • 210900Z 03008KT 30SM FEW210 09/M03 A2981 RMK CI2 SLP107 DENSITY ALT 2300FT
  • 210800Z 04006KT 020V080 30SM SCT210 09/M03 A2980 RMK CI3 SLP104 DENSITY ALT 2300FT

TAF TAF CYXJ
Valid from the 21 at 07:00 until the 21 at 19:00 UTC


210638Z 2107/2119 10010KT P6SM SCT220
BECMG 2111/2113 06006KT
BECMG 2116/2118 10012G22KT RMK NXT FCST BY 211300Z
CZEG FIR / North America



MET'MAP, your aeronautical weather chart ! - Copyright ORBIFLY December 2007 - Disclaimer

ORBIFLY MET'MAP TEAM :

Programming & Development : Alexandra Zaïnal
Concept & Development : Baudouin d'Aumeries
Co-Development & Prog : Marc-Olivier Méhu
Technical & hardware support : Manuel Goepfert

Contact : metmap@orbifly.com




SOURCES & CREDITS :

   NOAA       Earth
Advisory